sensor_id;sensor_type;location;lat;lon;timestamp;P1;durP1;ratioP1;P2;durP2;ratioP2
64033;SDS011;50280;49.864;8.638;2022-09-28T00:23:15;4.35;;;1.95;;
64033;SDS011;50280;49.864;8.638;2022-09-28T00:25:48;5.63;;;2.10;;
64033;SDS011;50280;49.864;8.638;2022-09-28T00:28:20;5.00;;;2.20;;
64033;SDS011;50280;49.864;8.638;2022-09-28T00:30:54;4.43;;;2.20;;
64033;SDS011;50280;49.864;8.638;2022-09-28T00:33:26;4.35;;;2.30;;
64033;SDS011;50280;49.864;8.638;2022-09-28T00:35:58;7.05;;;2.80;;
64033;SDS011;50280;49.864;8.638;2022-09-28T00:38:32;5.25;;;2.25;;
64033;SDS011;50280;49.864;8.638;2022-09-28T00:41:05;5.75;;;2.70;;
64033;SDS011;50280;49.864;8.638;2022-09-28T00:43:37;6.63;;;3.17;;
64033;SDS011;50280;49.864;8.638;2022-09-28T00:46:11;5.60;;;3.40;;
64033;SDS011;50280;49.864;8.638;2022-09-28T00:48:53;5.60;;;3.30;;
64033;SDS011;50280;49.864;8.638;2022-09-28T00:51:33;5.85;;;3.65;;
64033;SDS011;50280;49.864;8.638;2022-09-28T00:54:14;10.52;;;4.43;;
64033;SDS011;50280;49.864;8.638;2022-09-28T00:56:47;7.65;;;3.95;;
64033;SDS011;50280;49.864;8.638;2022-09-28T00:59:20;7.65;;;4.18;;
64033;SDS011;50280;49.864;8.638;2022-09-28T01:01:53;7.25;;;4.65;;
64033;SDS011;50280;49.864;8.638;2022-09-28T01:04:26;8.13;;;4.35;;
64033;SDS011;50280;49.864;8.638;2022-09-28T01:07:01;8.38;;;4.00;;
64033;SDS011;50280;49.864;8.638;2022-09-28T01:09:36;7.55;;;4.00;;
64033;SDS011;50280;49.864;8.638;2022-09-28T01:12:10;7.00;;;4.07;;
64033;SDS011;50280;49.864;8.638;2022-09-28T01:14:42;6.97;;;3.70;;
64033;SDS011;50280;49.864;8.638;2022-09-28T01:17:19;6.93;;;3.90;;
64033;SDS011;50280;49.864;8.638;2022-09-28T01:20:07;6.72;;;4.10;;
64033;SDS011;50280;49.864;8.638;2022-09-28T01:26:51;6.25;;;3.92;;
64033;SDS011;50280;49.864;8.638;2022-09-28T01:29:41;7.55;;;4.15;;
64033;SDS011;50280;49.864;8.638;2022-09-28T01:32:29;6.05;;;3.92;;
64033;SDS011;50280;49.864;8.638;2022-09-28T01:35:18;6.82;;;3.58;;
64033;SDS011;50280;49.864;8.638;2022-09-28T01:38:03;7.38;;;3.70;;
64033;SDS011;50280;49.864;8.638;2022-09-28T01:40:46;4.45;;;3.00;;
64033;SDS011;50280;49.864;8.638;2022-09-28T01:43:24;4.32;;;3.10;;
64033;SDS011;50280;49.864;8.638;2022-09-28T01:46:03;5.55;;;2.65;;
64033;SDS011;50280;49.864;8.638;2022-09-28T01:48:46;6.97;;;3.08;;
64033;SDS011;50280;49.864;8.638;2022-09-28T01:51:28;5.40;;;3.30;;
64033;SDS011;50280;49.864;8.638;2022-09-28T01:54:13;7.00;;;3.45;;
64033;SDS011;50280;49.864;8.638;2022-09-28T01:56:56;6.25;;;3.58;;
64033;SDS011;50280;49.864;8.638;2022-09-28T01:59:42;7.75;;;3.85;;
64033;SDS011;50280;49.864;8.638;2022-09-28T02:02:27;5.43;;;3.58;;
64033;SDS011;50280;49.864;8.638;2022-09-28T02:05:10;7.03;;;3.47;;
64033;SDS011;50280;49.864;8.638;2022-09-28T02:07:53;8.52;;;4.05;;
64033;SDS011;50280;49.864;8.638;2022-09-28T02:10:37;6.03;;;3.67;;
64033;SDS011;50280;49.864;8.638;2022-09-28T02:13:22;7.95;;;4.05;;
64033;SDS011;50280;49.864;8.638;2022-09-28T02:16:05;5.90;;;3.80;;
64033;SDS011;50280;49.864;8.638;2022-09-28T02:18:52;5.43;;;3.63;;
64033;SDS011;50280;49.864;8.638;2022-09-28T02:21:26;7.28;;;4.30;;
64033;SDS011;50280;49.864;8.638;2022-09-28T02:24:13;7.03;;;4.38;;
64033;SDS011;50280;49.864;8.638;2022-09-28T02:26:56;8.00;;;3.80;;
64033;SDS011;50280;49.864;8.638;2022-09-28T02:29:38;6.97;;;3.90;;
64033;SDS011;50280;49.864;8.638;2022-09-28T02:32:11;9.23;;;4.38;;
64033;SDS011;50280;49.864;8.638;2022-09-28T02:34:45;6.72;;;3.83;;
64033;SDS011;50280;49.864;8.638;2022-09-28T02:37:18;6.65;;;3.70;;
64033;SDS011;50280;49.864;8.638;2022-09-28T02:39:50;7.38;;;3.83;;
64033;SDS011;50280;49.864;8.638;2022-09-28T02:42:23;5.90;;;3.60;;
64033;SDS011;50280;49.864;8.638;2022-09-28T02:45:13;7.05;;;3.75;;
64033;SDS011;50280;49.864;8.638;2022-09-28T02:48:14;7.43;;;3.45;;
64033;SDS011;50280;49.864;8.638;2022-09-28T02:51:08;8.73;;;3.60;;
64033;SDS011;50280;49.864;8.638;2022-09-28T02:54:02;5.85;;;3.30;;
64033;SDS011;50280;49.864;8.638;2022-09-28T02:57:06;4.72;;;2.80;;
64033;SDS011;50280;49.864;8.638;2022-09-28T03:00:03;5.95;;;2.88;;
64033;SDS011;50280;49.864;8.638;2022-09-28T03:02:40;7.05;;;3.08;;
64033;SDS011;50280;49.864;8.638;2022-09-28T03:05:35;5.97;;;2.75;;
64033;SDS011;50280;49.864;8.638;2022-09-28T03:08:20;5.88;;;3.03;;
64033;SDS011;50280;49.864;8.638;2022-09-28T03:11:03;3.90;;;2.22;;
64033;SDS011;50280;49.864;8.638;2022-09-28T03:13:48;5.57;;;2.10;;
64033;SDS011;50280;49.864;8.638;2022-09-28T03:16:22;5.13;;;2.13;;
64033;SDS011;50280;49.864;8.638;2022-09-28T03:18:54;5.20;;;2.20;;
64033;SDS011;50280;49.864;8.638;2022-09-28T03:21:28;4.18;;;2.10;;
64033;SDS011;50280;49.864;8.638;2022-09-28T03:24:01;4.05;;;2.03;;
64033;SDS011;50280;49.864;8.638;2022-09-28T03:26:33;4.70;;;1.92;;
64033;SDS011;50280;49.864;8.638;2022-09-28T03:29:05;5.13;;;2.05;;
64033;SDS011;50280;49.864;8.638;2022-09-28T03:31:38;8.13;;;2.20;;
64033;SDS011;50280;49.864;8.638;2022-09-28T03:34:10;4.00;;;1.50;;
64033;SDS011;50280;49.864;8.638;2022-09-28T03:36:44;3.28;;;1.27;;
64033;SDS011;50280;49.864;8.638;2022-09-28T03:39:16;5.95;;;1.40;;
64033;SDS011;50280;49.864;8.638;2022-09-28T03:41:49;2.92;;;1.17;;
64033;SDS011;50280;49.864;8.638;2022-09-28T03:44:21;2.13;;;1.20;;
64033;SDS011;50280;49.864;8.638;2022-09-28T03:46:53;3.40;;;1.45;;
64033;SDS011;50280;49.864;8.638;2022-09-28T03:49:26;4.00;;;1.40;;
64033;SDS011;50280;49.864;8.638;2022-09-28T03:51:59;2.95;;;1.30;;
64033;SDS011;50280;49.864;8.638;2022-09-28T03:54:33;3.28;;;1.40;;
64033;SDS011;50280;49.864;8.638;2022-09-28T03:57:05;3.75;;;1.42;;
64033;SDS011;50280;49.864;8.638;2022-09-28T03:59:38;2.55;;;1.13;;
64033;SDS011;50280;49.864;8.638;2022-09-28T04:02:10;4.43;;;1.40;;
64033;SDS011;50280;49.864;8.638;2022-09-28T04:04:43;2.17;;;1.20;;
64033;SDS011;50280;49.864;8.638;2022-09-28T04:07:16;3.03;;;0.95;;
64033;SDS011;50280;49.864;8.638;2022-09-28T04:09:49;2.80;;;1.23;;
64033;SDS011;50280;49.864;8.638;2022-09-28T04:12:21;3.33;;;1.35;;
64033;SDS011;50280;49.864;8.638;2022-09-28T04:14:53;1.63;;;1.00;;
64033;SDS011;50280;49.864;8.638;2022-09-28T04:17:26;2.15;;;0.90;;
64033;SDS011;50280;49.864;8.638;2022-09-28T04:19:58;2.35;;;1.00;;
64033;SDS011;50280;49.864;8.638;2022-09-28T04:22:32;1.85;;;1.00;;
64033;SDS011;50280;49.864;8.638;2022-09-28T04:25:04;1.80;;;0.98;;
64033;SDS011;50280;49.864;8.638;2022-09-28T04:27:38;2.47;;;0.80;;
64033;SDS011;50280;49.864;8.638;2022-09-28T04:30:11;1.60;;;0.88;;
64033;SDS011;50280;49.864;8.638;2022-09-28T04:32:44;2.88;;;0.90;;
64033;SDS011;50280;49.864;8.638;2022-09-28T04:35:17;1.88;;;1.00;;
64033;SDS011;50280;49.864;8.638;2022-09-28T04:37:51;3.53;;;0.93;;
64033;SDS011;50280;49.864;8.638;2022-09-28T04:40:23;2.15;;;0.82;;
64033;SDS011;50280;49.864;8.638;2022-09-28T04:42:56;7.43;;;3.30;;
64033;SDS011;50280;49.864;8.638;2022-09-28T04:45:28;3.05;;;1.30;;
64033;SDS011;50280;49.864;8.638;2022-09-28T04:48:01;2.92;;;1.00;;
64033;SDS011;50280;49.864;8.638;2022-09-28T04:50:36;1.27;;;0.77;;
64033;SDS011;50280;49.864;8.638;2022-09-28T04:53:10;1.50;;;0.90;;
64033;SDS011;50280;49.864;8.638;2022-09-28T04:55:43;3.13;;;1.20;;
64033;SDS011;50280;49.864;8.638;2022-09-28T04:58:15;2.88;;;1.27;;
64033;SDS011;50280;49.864;8.638;2022-09-28T05:00:47;3.05;;;1.13;;
64033;SDS011;50280;49.864;8.638;2022-09-28T05:03:20;2.88;;;1.20;;
64033;SDS011;50280;49.864;8.638;2022-09-28T05:05:52;3.08;;;1.10;;
64033;SDS011;50280;49.864;8.638;2022-09-28T05:08:26;1.98;;;1.10;;
64033;SDS011;50280;49.864;8.638;2022-09-28T05:11:00;2.33;;;1.02;;
64033;SDS011;50280;49.864;8.638;2022-09-28T05:13:38;2.10;;;1.20;;
64033;SDS011;50280;49.864;8.638;2022-09-28T05:16:14;3.00;;;1.33;;
64033;SDS011;50280;49.864;8.638;2022-09-28T05:18:47;2.95;;;1.27;;
64033;SDS011;50280;49.864;8.638;2022-09-28T05:21:19;4.30;;;1.40;;
64033;SDS011;50280;49.864;8.638;2022-09-28T05:23:53;2.38;;;1.30;;
64033;SDS011;50280;49.864;8.638;2022-09-28T05:26:25;3.30;;;1.40;;
64033;SDS011;50280;49.864;8.638;2022-09-28T05:28:58;4.13;;;1.58;;
64033;SDS011;50280;49.864;8.638;2022-09-28T05:31:30;3.47;;;1.60;;
64033;SDS011;50280;49.864;8.638;2022-09-28T05:34:02;3.08;;;1.73;;
64033;SDS011;50280;49.864;8.638;2022-09-28T05:36:35;3.50;;;1.73;;
64033;SDS011;50280;49.864;8.638;2022-09-28T05:39:09;4.38;;;1.90;;
64033;SDS011;50280;49.864;8.638;2022-09-28T05:41:42;5.75;;;2.10;;
64033;SDS011;50280;49.864;8.638;2022-09-28T05:44:14;3.88;;;1.75;;
64033;SDS011;50280;49.864;8.638;2022-09-28T05:46:47;4.53;;;1.55;;
64033;SDS011;50280;49.864;8.638;2022-09-28T05:49:19;3.22;;;1.75;;
64033;SDS011;50280;49.864;8.638;2022-09-28T05:51:51;2.85;;;1.60;;
64033;SDS011;50280;49.864;8.638;2022-09-28T05:54:25;3.42;;;1.90;;
64033;SDS011;50280;49.864;8.638;2022-09-28T05:56:58;2.75;;;1.73;;
64033;SDS011;50280;49.864;8.638;2022-09-28T05:59:30;3.45;;;1.50;;
64033;SDS011;50280;49.864;8.638;2022-09-28T06:02:03;5.47;;;1.90;;
64033;SDS011;50280;49.864;8.638;2022-09-28T06:04:36;2.80;;;1.60;;
64033;SDS011;50280;49.864;8.638;2022-09-28T06:07:09;5.25;;;1.73;;
64033;SDS011;50280;49.864;8.638;2022-09-28T06:09:42;2.55;;;1.60;;
64033;SDS011;50280;49.864;8.638;2022-09-28T06:12:15;4.05;;;1.60;;
64033;SDS011;50280;49.864;8.638;2022-09-28T06:14:47;3.45;;;1.70;;
64033;SDS011;50280;49.864;8.638;2022-09-28T06:17:20;2.65;;;1.58;;
64033;SDS011;50280;49.864;8.638;2022-09-28T06:19:52;5.28;;;1.75;;
64033;SDS011;50280;49.864;8.638;2022-09-28T06:22:24;4.00;;;1.58;;
64033;SDS011;50280;49.864;8.638;2022-09-28T06:24:58;4.13;;;1.83;;
64033;SDS011;50280;49.864;8.638;2022-09-28T06:27:30;4.10;;;1.77;;
64033;SDS011;50280;49.864;8.638;2022-09-28T06:30:03;3.35;;;1.52;;
64033;SDS011;50280;49.864;8.638;2022-09-28T06:32:37;2.35;;;1.50;;
64033;SDS011;50280;49.864;8.638;2022-09-28T06:35:10;2.95;;;1.63;;
64033;SDS011;50280;49.864;8.638;2022-09-28T06:37:43;2.55;;;1.40;;
64033;SDS011;50280;49.864;8.638;2022-09-28T06:40:17;2.80;;;1.45;;
64033;SDS011;50280;49.864;8.638;2022-09-28T06:42:54;2.67;;;1.38;;
64033;SDS011;50280;49.864;8.638;2022-09-28T06:45:28;3.22;;;1.77;;
64033;SDS011;50280;49.864;8.638;2022-09-28T06:48:02;2.70;;;1.25;;
64033;SDS011;50280;49.864;8.638;2022-09-28T06:50:36;2.10;;;1.10;;
64033;SDS011;50280;49.864;8.638;2022-09-28T06:53:12;2.53;;;1.10;;
64033;SDS011;50280;49.864;8.638;2022-09-28T06:55:47;2.45;;;1.10;;
64033;SDS011;50280;49.864;8.638;2022-09-28T06:58:19;2.67;;;1.20;;
64033;SDS011;50280;49.864;8.638;2022-09-28T07:00:55;2.05;;;1.10;;
64033;SDS011;50280;49.864;8.638;2022-09-28T07:03:28;3.53;;;1.20;;
64033;SDS011;50280;49.864;8.638;2022-09-28T07:06:00;2.90;;;1.30;;
64033;SDS011;50280;49.864;8.638;2022-09-28T07:08:33;2.97;;;1.20;;
64033;SDS011;50280;49.864;8.638;2022-09-28T07:11:07;2.38;;;1.00;;
64033;SDS011;50280;49.864;8.638;2022-09-28T07:13:40;3.25;;;1.10;;
64033;SDS011;50280;49.864;8.638;2022-09-28T07:16:12;1.58;;;1.00;;
64033;SDS011;50280;49.864;8.638;2022-09-28T07:18:44;3.20;;;1.30;;
64033;SDS011;50280;49.864;8.638;2022-09-28T07:21:17;2.38;;;1.20;;
64033;SDS011;50280;49.864;8.638;2022-09-28T07:23:49;3.40;;;1.40;;
64033;SDS011;50280;49.864;8.638;2022-09-28T07:26:23;2.47;;;1.20;;
64033;SDS011;50280;49.864;8.638;2022-09-28T07:28:55;2.97;;;1.40;;
64033;SDS011;50280;49.864;8.638;2022-09-28T07:31:27;4.75;;;1.67;;
64033;SDS011;50280;49.864;8.638;2022-09-28T07:34:00;3.85;;;1.70;;
64033;SDS011;50280;49.864;8.638;2022-09-28T07:36:32;2.10;;;1.13;;
64033;SDS011;50280;49.864;8.638;2022-09-28T07:39:04;4.40;;;1.55;;
64033;SDS011;50280;49.864;8.638;2022-09-28T07:41:38;3.97;;;1.60;;
64033;SDS011;50280;49.864;8.638;2022-09-28T07:44:11;3.00;;;1.20;;
64033;SDS011;50280;49.864;8.638;2022-09-28T07:46:43;3.17;;;1.15;;
64033;SDS011;50280;49.864;8.638;2022-09-28T07:49:15;2.83;;;1.25;;
64033;SDS011;50280;49.864;8.638;2022-09-28T07:51:48;2.42;;;0.93;;
64033;SDS011;50280;49.864;8.638;2022-09-28T07:54:20;2.83;;;1.05;;
64033;SDS011;50280;49.864;8.638;2022-09-28T07:56:54;3.75;;;0.90;;
64033;SDS011;50280;49.864;8.638;2022-09-28T07:59:26;1.92;;;0.90;;
64033;SDS011;50280;49.864;8.638;2022-09-28T08:01:58;3.38;;;1.00;;
64033;SDS011;50280;49.864;8.638;2022-09-28T08:04:31;2.13;;;1.13;;
64033;SDS011;50280;49.864;8.638;2022-09-28T08:07:06;2.75;;;0.93;;
64033;SDS011;50280;49.864;8.638;2022-09-28T08:09:40;2.45;;;1.02;;
64033;SDS011;50280;49.864;8.638;2022-09-28T08:12:14;2.10;;;1.00;;
64033;SDS011;50280;49.864;8.638;2022-09-28T08:14:46;1.60;;;0.90;;
64033;SDS011;50280;49.864;8.638;2022-09-28T08:17:19;4.10;;;1.00;;
64033;SDS011;50280;49.864;8.638;2022-09-28T08:19:51;1.80;;;0.80;;
64033;SDS011;50280;49.864;8.638;2022-09-28T08:22:24;2.72;;;1.00;;
64033;SDS011;50280;49.864;8.638;2022-09-28T08:24:56;2.25;;;0.80;;
64033;SDS011;50280;49.864;8.638;2022-09-28T08:27:30;3.15;;;0.88;;
64033;SDS011;50280;49.864;8.638;2022-09-28T08:30:03;2.78;;;1.05;;
64033;SDS011;50280;49.864;8.638;2022-09-28T08:32:37;2.55;;;1.00;;
64033;SDS011;50280;49.864;8.638;2022-09-28T08:35:09;1.98;;;1.08;;
64033;SDS011;50280;49.864;8.638;2022-09-28T08:37:42;2.63;;;0.90;;
64033;SDS011;50280;49.864;8.638;2022-09-28T08:40:21;2.55;;;0.95;;
64033;SDS011;50280;49.864;8.638;2022-09-28T08:42:59;3.15;;;1.60;;
64033;SDS011;50280;49.864;8.638;2022-09-28T08:45:51;1.52;;;0.90;;
64033;SDS011;50280;49.864;8.638;2022-09-28T08:48:27;4.43;;;1.98;;
64033;SDS011;50280;49.864;8.638;2022-09-28T08:51:13;7.13;;;3.38;;
64033;SDS011;50280;49.864;8.638;2022-09-28T08:53:52;2.08;;;0.98;;
64033;SDS011;50280;49.864;8.638;2022-09-28T08:56:37;2.50;;;0.90;;
64033;SDS011;50280;49.864;8.638;2022-09-28T08:59:19;2.85;;;1.00;;
64033;SDS011;50280;49.864;8.638;2022-09-28T09:02:01;2.33;;;0.82;;
64033;SDS011;50280;49.864;8.638;2022-09-28T09:04:43;2.13;;;0.90;;
64033;SDS011;50280;49.864;8.638;2022-09-28T09:07:22;1.70;;;0.95;;
64033;SDS011;50280;49.864;8.638;2022-09-28T09:10:49;5.55;;;1.55;;
64033;SDS011;50280;49.864;8.638;2022-09-28T09:13:38;1.23;;;0.80;;
64033;SDS011;50280;49.864;8.638;2022-09-28T09:16:54;3.05;;;1.10;;
64033;SDS011;50280;49.864;8.638;2022-09-28T09:19:45;3.28;;;1.15;;
64033;SDS011;50280;49.864;8.638;2022-09-28T09:22:28;3.95;;;1.10;;
64033;SDS011;50280;49.864;8.638;2022-09-28T09:25:15;2.75;;;0.80;;
64033;SDS011;50280;49.864;8.638;2022-09-28T09:27:56;2.67;;;0.90;;
64033;SDS011;50280;49.864;8.638;2022-09-28T09:31:12;2.63;;;1.30;;
64033;SDS011;50280;49.864;8.638;2022-09-28T09:37:52;4.32;;;0.90;;
64033;SDS011;50280;49.864;8.638;2022-09-28T09:40:55;3.60;;;1.10;;
64033;SDS011;50280;49.864;8.638;2022-09-28T09:43:55;3.97;;;1.73;;
64033;SDS011;50280;49.864;8.638;2022-09-28T09:47:16;2.03;;;0.77;;
64033;SDS011;50280;49.864;8.638;2022-09-28T09:50:02;2.75;;;0.90;;
64033;SDS011;50280;49.864;8.638;2022-09-28T09:52:49;3.10;;;0.90;;
64033;SDS011;50280;49.864;8.638;2022-09-28T09:55:30;1.95;;;0.80;;
64033;SDS011;50280;49.864;8.638;2022-09-28T09:58:12;1.90;;;0.80;;
64033;SDS011;50280;49.864;8.638;2022-09-28T10:00:54;2.50;;;0.98;;
64033;SDS011;50280;49.864;8.638;2022-09-28T10:03:38;1.33;;;0.65;;
64033;SDS011;50280;49.864;8.638;2022-09-28T10:06:18;1.40;;;0.73;;
64033;SDS011;50280;49.864;8.638;2022-09-28T10:09:04;3.35;;;1.00;;
64033;SDS011;50280;49.864;8.638;2022-09-28T10:11:47;2.60;;;0.98;;
64033;SDS011;50280;49.864;8.638;2022-09-28T10:14:21;1.40;;;0.80;;
64033;SDS011;50280;49.864;8.638;2022-09-28T10:16:56;1.23;;;0.80;;
64033;SDS011;50280;49.864;8.638;2022-09-28T10:19:30;1.70;;;0.93;;
64033;SDS011;50280;49.864;8.638;2022-09-28T10:22:08;2.45;;;0.68;;
64033;SDS011;50280;49.864;8.638;2022-09-28T10:24:51;1.50;;;0.80;;
64033;SDS011;50280;49.864;8.638;2022-09-28T10:27:27;1.27;;;0.60;;
64033;SDS011;50280;49.864;8.638;2022-09-28T10:30:12;2.58;;;0.93;;
64033;SDS011;50280;49.864;8.638;2022-09-28T10:32:50;1.63;;;0.50;;
64033;SDS011;50280;49.864;8.638;2022-09-28T10:35:25;3.05;;;1.30;;
64033;SDS011;50280;49.864;8.638;2022-09-28T10:38:12;1.15;;;0.60;;
64033;SDS011;50280;49.864;8.638;2022-09-28T10:40:49;1.48;;;0.60;;
64033;SDS011;50280;49.864;8.638;2022-09-28T10:43:25;2.00;;;0.77;;
64033;SDS011;50280;49.864;8.638;2022-09-28T10:46:03;1.63;;;0.80;;
64033;SDS011;50280;49.864;8.638;2022-09-28T10:48:46;3.00;;;0.70;;
64033;SDS011;50280;49.864;8.638;2022-09-28T10:51:38;2.08;;;0.80;;
64033;SDS011;50280;49.864;8.638;2022-09-28T10:54:15;2.42;;;0.80;;
64033;SDS011;50280;49.864;8.638;2022-09-28T10:56:52;1.65;;;0.70;;
64033;SDS011;50280;49.864;8.638;2022-09-28T10:59:34;2.70;;;0.88;;
64033;SDS011;50280;49.864;8.638;2022-09-28T11:02:15;3.35;;;0.80;;
64033;SDS011;50280;49.864;8.638;2022-09-28T11:04:56;2.65;;;0.70;;
64033;SDS011;50280;49.864;8.638;2022-09-28T11:07:42;1.48;;;0.70;;
64033;SDS011;50280;49.864;8.638;2022-09-28T11:10:20;1.20;;;0.70;;
64033;SDS011;50280;49.864;8.638;2022-09-28T11:12:56;2.28;;;0.90;;
64033;SDS011;50280;49.864;8.638;2022-09-28T11:15:31;2.08;;;0.77;;
64033;SDS011;50280;49.864;8.638;2022-09-28T11:18:16;2.72;;;0.65;;
64033;SDS011;50280;49.864;8.638;2022-09-28T11:21:06;1.40;;;0.70;;
64033;SDS011;50280;49.864;8.638;2022-09-28T11:23:54;1.60;;;0.70;;
64033;SDS011;50280;49.864;8.638;2022-09-28T11:26:36;1.38;;;0.60;;
64033;SDS011;50280;49.864;8.638;2022-09-28T11:29:17;1.80;;;0.73;;
64033;SDS011;50280;49.864;8.638;2022-09-28T11:31:58;1.42;;;0.63;;
64033;SDS011;50280;49.864;8.638;2022-09-28T11:34:33;2.25;;;0.75;;
64033;SDS011;50280;49.864;8.638;2022-09-28T11:37:17;1.45;;;0.60;;
64033;SDS011;50280;49.864;8.638;2022-09-28T11:40:23;1.40;;;0.70;;
64033;SDS011;50280;49.864;8.638;2022-09-28T11:43:17;1.95;;;0.70;;
64033;SDS011;50280;49.864;8.638;2022-09-28T11:46:34;1.20;;;0.60;;
64033;SDS011;50280;49.864;8.638;2022-09-28T11:49:26;1.67;;;0.60;;
64033;SDS011;50280;49.864;8.638;2022-09-28T11:52:12;1.90;;;0.70;;
64033;SDS011;50280;49.864;8.638;2022-09-28T11:54:57;2.47;;;0.80;;
64033;SDS011;50280;49.864;8.638;2022-09-28T11:57:44;1.27;;;0.65;;
64033;SDS011;50280;49.864;8.638;2022-09-28T12:00:26;1.20;;;0.50;;
64033;SDS011;50280;49.864;8.638;2022-09-28T12:03:03;2.25;;;0.50;;
64033;SDS011;50280;49.864;8.638;2022-09-28T12:05:46;1.83;;;0.68;;
64033;SDS011;50280;49.864;8.638;2022-09-28T12:08:28;1.85;;;0.70;;
64033;SDS011;50280;49.864;8.638;2022-09-28T12:11:09;1.00;;;0.70;;
64033;SDS011;50280;49.864;8.638;2022-09-28T12:13:51;1.95;;;0.73;;
64033;SDS011;50280;49.864;8.638;2022-09-28T12:16:33;1.63;;;0.73;;
64033;SDS011;50280;49.864;8.638;2022-09-28T12:19:17;1.67;;;0.63;;
64033;SDS011;50280;49.864;8.638;2022-09-28T12:22:02;1.90;;;0.60;;
64033;SDS011;50280;49.864;8.638;2022-09-28T12:24:48;1.48;;;0.70;;
64033;SDS011;50280;49.864;8.638;2022-09-28T12:27:28;1.33;;;0.80;;
64033;SDS011;50280;49.864;8.638;2022-09-28T12:30:13;2.85;;;0.90;;
64033;SDS011;50280;49.864;8.638;2022-09-28T12:32:51;2.20;;;0.70;;
64033;SDS011;50280;49.864;8.638;2022-09-28T12:35:38;1.10;;;0.70;;
64033;SDS011;50280;49.864;8.638;2022-09-28T12:38:39;0.85;;;0.60;;
64033;SDS011;50280;49.864;8.638;2022-09-28T12:41:36;1.30;;;0.60;;
64033;SDS011;50280;49.864;8.638;2022-09-28T12:44:35;1.65;;;0.80;;
64033;SDS011;50280;49.864;8.638;2022-09-28T12:47:37;0.98;;;0.60;;
64033;SDS011;50280;49.864;8.638;2022-09-28T12:50:45;2.00;;;0.70;;
64033;SDS011;50280;49.864;8.638;2022-09-28T12:53:47;1.45;;;0.70;;
64033;SDS011;50280;49.864;8.638;2022-09-28T12:56:45;1.23;;;0.70;;
64033;SDS011;50280;49.864;8.638;2022-09-28T12:59:46;1.63;;;0.68;;
64033;SDS011;50280;49.864;8.638;2022-09-28T13:02:48;1.23;;;0.60;;
64033;SDS011;50280;49.864;8.638;2022-09-28T13:06:18;6.22;;;0.82;;
64033;SDS011;50280;49.864;8.638;2022-09-28T13:11:54;1.15;;;0.68;;
64033;SDS011;50280;49.864;8.638;2022-09-28T13:15:12;2.05;;;0.70;;
64033;SDS011;50280;49.864;8.638;2022-09-28T13:18:17;1.80;;;0.63;;
64033;SDS011;50280;49.864;8.638;2022-09-28T13:21:08;1.73;;;0.73;;
64033;SDS011;50280;49.864;8.638;2022-09-28T13:23:53;0.75;;;0.50;;
64033;SDS011;50280;49.864;8.638;2022-09-28T13:29:11;2.30;;;0.68;;
64033;SDS011;50280;49.864;8.638;2022-09-28T13:31:50;2.22;;;0.80;;
64033;SDS011;50280;49.864;8.638;2022-09-28T13:34:27;3.13;;;0.80;;
64033;SDS011;50280;49.864;8.638;2022-09-28T13:37:09;2.03;;;0.60;;
64033;SDS011;50280;49.864;8.638;2022-09-28T13:39:53;1.83;;;0.70;;
64033;SDS011;50280;49.864;8.638;2022-09-28T13:42:30;0.70;;;0.50;;
64033;SDS011;50280;49.864;8.638;2022-09-28T13:45:52;0.73;;;0.60;;
64033;SDS011;50280;49.864;8.638;2022-09-28T13:48:33;3.47;;;0.80;;
64033;SDS011;50280;49.864;8.638;2022-09-28T13:51:28;1.98;;;0.70;;
64033;SDS011;50280;49.864;8.638;2022-09-28T13:57:22;1.52;;;0.75;;
64033;SDS011;50280;49.864;8.638;2022-09-28T14:00:14;1.77;;;0.80;;
64033;SDS011;50280;49.864;8.638;2022-09-28T14:02:58;1.52;;;0.68;;
64033;SDS011;50280;49.864;8.638;2022-09-28T14:06:04;3.72;;;0.75;;
64033;SDS011;50280;49.864;8.638;2022-09-28T14:09:05;1.92;;;0.63;;
64033;SDS011;50280;49.864;8.638;2022-09-28T14:12:29;1.77;;;0.68;;
64033;SDS011;50280;49.864;8.638;2022-09-28T14:18:18;2.83;;;0.85;;
64033;SDS011;50280;49.864;8.638;2022-09-28T14:21:12;1.45;;;0.80;;
64033;SDS011;50280;49.864;8.638;2022-09-28T14:24:47;1.10;;;0.70;;
64033;SDS011;50280;49.864;8.638;2022-09-28T14:27:39;1.70;;;0.80;;
64033;SDS011;50280;49.864;8.638;2022-09-28T14:30:45;1.95;;;0.70;;
64033;SDS011;50280;49.864;8.638;2022-09-28T14:33:23;1.20;;;0.60;;
64033;SDS011;50280;49.864;8.638;2022-09-28T14:36:01;2.57;;;1.33;;
64033;SDS011;50280;49.864;8.638;2022-09-28T14:38:51;2.22;;;0.82;;
64033;SDS011;50280;49.864;8.638;2022-09-28T14:41:26;2.50;;;0.85;;
64033;SDS011;50280;49.864;8.638;2022-09-28T14:44:05;1.10;;;0.60;;
64033;SDS011;50280;49.864;8.638;2022-09-28T14:46:40;3.08;;;0.80;;
64033;SDS011;50280;49.864;8.638;2022-09-28T14:52:36;2.22;;;0.80;;
64033;SDS011;50280;49.864;8.638;2022-09-28T14:55:14;1.67;;;0.70;;
64033;SDS011;50280;49.864;8.638;2022-09-28T14:57:58;1.55;;;0.60;;
64033;SDS011;50280;49.864;8.638;2022-09-28T15:00:30;1.85;;;0.80;;
64033;SDS011;50280;49.864;8.638;2022-09-28T15:03:04;1.42;;;0.70;;
64033;SDS011;50280;49.864;8.638;2022-09-28T15:05:42;1.85;;;0.80;;
64033;SDS011;50280;49.864;8.638;2022-09-28T15:08:18;1.23;;;0.70;;
64033;SDS011;50280;49.864;8.638;2022-09-28T15:10:51;0.85;;;0.70;;
64033;SDS011;50280;49.864;8.638;2022-09-28T15:13:26;4.35;;;1.50;;
64033;SDS011;50280;49.864;8.638;2022-09-28T15:16:02;2.17;;;1.02;;
64033;SDS011;50280;49.864;8.638;2022-09-28T15:18:47;2.80;;;1.00;;
64033;SDS011;50280;49.864;8.638;2022-09-28T15:21:51;3.35;;;1.20;;
64033;SDS011;50280;49.864;8.638;2022-09-28T15:24:25;2.38;;;1.10;;
64033;SDS011;50280;49.864;8.638;2022-09-28T15:27:03;2.60;;;0.75;;
64033;SDS011;50280;49.864;8.638;2022-09-28T15:29:56;1.30;;;0.80;;
64033;SDS011;50280;49.864;8.638;2022-09-28T15:32:29;1.83;;;0.70;;
64033;SDS011;50280;49.864;8.638;2022-09-28T15:35:08;1.48;;;0.80;;
64033;SDS011;50280;49.864;8.638;2022-09-28T15:37:44;1.38;;;0.60;;
64033;SDS011;50280;49.864;8.638;2022-09-28T15:40:20;1.60;;;0.80;;
64033;SDS011;50280;49.864;8.638;2022-09-28T15:43:03;2.28;;;0.90;;
64033;SDS011;50280;49.864;8.638;2022-09-28T15:45:58;1.83;;;0.95;;
64033;SDS011;50280;49.864;8.638;2022-09-28T15:48:39;2.42;;;0.80;;
64033;SDS011;50280;49.864;8.638;2022-09-28T15:51:21;2.50;;;0.90;;
64033;SDS011;50280;49.864;8.638;2022-09-28T15:53:56;2.95;;;0.88;;
64033;SDS011;50280;49.864;8.638;2022-09-28T15:56:48;4.65;;;2.75;;
64033;SDS011;50280;49.864;8.638;2022-09-28T15:59:25;1.23;;;0.82;;
64033;SDS011;50280;49.864;8.638;2022-09-28T16:02:13;2.28;;;1.52;;
64033;SDS011;50280;49.864;8.638;2022-09-28T16:04:50;2.00;;;1.10;;
64033;SDS011;50280;49.864;8.638;2022-09-28T16:07:27;1.88;;;0.80;;
64033;SDS011;50280;49.864;8.638;2022-09-28T16:13:13;3.00;;;0.90;;
64033;SDS011;50280;49.864;8.638;2022-09-28T16:15:52;1.25;;;0.70;;
64033;SDS011;50280;49.864;8.638;2022-09-28T16:18:30;1.90;;;0.90;;
64033;SDS011;50280;49.864;8.638;2022-09-28T16:21:25;1.75;;;0.73;;
64033;SDS011;50280;49.864;8.638;2022-09-28T16:24:20;2.15;;;1.00;;
64033;SDS011;50280;49.864;8.638;2022-09-28T16:26:57;2.10;;;0.80;;
64033;SDS011;50280;49.864;8.638;2022-09-28T16:29:36;1.50;;;0.90;;
64033;SDS011;50280;49.864;8.638;2022-09-28T16:32:34;1.40;;;0.77;;
64033;SDS011;50280;49.864;8.638;2022-09-28T16:38:21;1.30;;;0.80;;
64033;SDS011;50280;49.864;8.638;2022-09-28T16:40:53;1.90;;;0.80;;
64033;SDS011;50280;49.864;8.638;2022-09-28T16:43:26;1.40;;;0.80;;
64033;SDS011;50280;49.864;8.638;2022-09-28T16:46:04;2.33;;;1.00;;
64033;SDS011;50280;49.864;8.638;2022-09-28T16:48:41;2.35;;;0.95;;
64033;SDS011;50280;49.864;8.638;2022-09-28T16:51:20;2.25;;;1.00;;
64033;SDS011;50280;49.864;8.638;2022-09-28T16:53:54;2.47;;;1.10;;
64033;SDS011;50280;49.864;8.638;2022-09-28T16:56:41;1.90;;;1.10;;
64033;SDS011;50280;49.864;8.638;2022-09-28T16:59:14;2.65;;;1.20;;